sensor_id;sensor_type;location;lat;lon;timestamp;P1;durP1;ratioP1;P2;durP2;ratioP2
1577;SDS011;57623;53.608;10.004;2022-12-29T00:00:05;5.30;;;4.20;;
1577;SDS011;57623;53.608;10.004;2022-12-29T00:02:58;5.00;;;4.60;;
1577;SDS011;57623;53.608;10.004;2022-12-29T00:05:53;4.70;;;4.40;;
1577;SDS011;57623;53.608;10.004;2022-12-29T00:08:46;4.63;;;4.33;;
1577;SDS011;57623;53.608;10.004;2022-12-29T00:11:40;4.30;;;4.00;;
1577;SDS011;57623;53.608;10.004;2022-12-29T00:14:30;4.90;;;4.50;;
1577;SDS011;57623;53.608;10.004;2022-12-29T00:17:41;5.27;;;4.80;;
1577;SDS011;57623;53.608;10.004;2022-12-29T00:20:33;6.70;;;4.87;;
1577;SDS011;57623;53.608;10.004;2022-12-29T00:23:39;4.60;;;4.30;;
1577;SDS011;57623;53.608;10.004;2022-12-29T00:26:48;5.00;;;4.50;;
1577;SDS011;57623;53.608;10.004;2022-12-29T00:29:56;5.13;;;4.63;;
1577;SDS011;57623;53.608;10.004;2022-12-29T00:33:08;4.87;;;4.47;;
1577;SDS011;57623;53.608;10.004;2022-12-29T00:36:17;5.27;;;4.87;;
1577;SDS011;57623;53.608;10.004;2022-12-29T00:39:12;4.70;;;4.30;;
1577;SDS011;57623;53.608;10.004;2022-12-29T00:42:22;4.57;;;4.27;;
1577;SDS011;57623;53.608;10.004;2022-12-29T00:45:28;4.97;;;4.57;;
1577;SDS011;57623;53.608;10.004;2022-12-29T00:48:17;5.60;;;5.00;;
1577;SDS011;57623;53.608;10.004;2022-12-29T00:51:27;5.33;;;4.93;;
1577;SDS011;57623;53.608;10.004;2022-12-29T00:54:15;5.97;;;5.40;;
1577;SDS011;57623;53.608;10.004;2022-12-29T00:57:06;5.60;;;5.10;;
1577;SDS011;57623;53.608;10.004;2022-12-29T00:59:55;5.63;;;5.23;;
1577;SDS011;57623;53.608;10.004;2022-12-29T01:02:44;5.70;;;5.20;;
1577;SDS011;57623;53.608;10.004;2022-12-29T01:05:35;5.63;;;5.20;;
1577;SDS011;57623;53.608;10.004;2022-12-29T01:08:29;5.43;;;4.93;;
1577;SDS011;57623;53.608;10.004;2022-12-29T01:11:18;5.60;;;5.10;;
1577;SDS011;57623;53.608;10.004;2022-12-29T01:14:07;5.50;;;5.10;;
1577;SDS011;57623;53.608;10.004;2022-12-29T01:16:59;5.40;;;5.00;;
1577;SDS011;57623;53.608;10.004;2022-12-29T01:19:54;5.60;;;5.20;;
1577;SDS011;57623;53.608;10.004;2022-12-29T01:22:45;4.93;;;4.53;;
1577;SDS011;57623;53.608;10.004;2022-12-29T01:25:37;4.80;;;4.40;;
1577;SDS011;57623;53.608;10.004;2022-12-29T01:28:33;4.97;;;4.57;;
1577;SDS011;57623;53.608;10.004;2022-12-29T01:31:24;4.83;;;4.50;;
1577;SDS011;57623;53.608;10.004;2022-12-29T01:34:14;5.70;;;5.20;;
1577;SDS011;57623;53.608;10.004;2022-12-29T01:37:08;5.60;;;5.03;;
1577;SDS011;57623;53.608;10.004;2022-12-29T01:40:03;5.10;;;4.70;;
1577;SDS011;57623;53.608;10.004;2022-12-29T01:42:54;5.60;;;5.17;;
1577;SDS011;57623;53.608;10.004;2022-12-29T01:45:44;5.70;;;5.30;;
1577;SDS011;57623;53.608;10.004;2022-12-29T01:48:35;5.40;;;4.93;;
1577;SDS011;57623;53.608;10.004;2022-12-29T01:51:26;6.27;;;5.77;;
1577;SDS011;57623;53.608;10.004;2022-12-29T01:54:23;5.77;;;5.37;;
1577;SDS011;57623;53.608;10.004;2022-12-29T01:57:16;6.10;;;5.60;;
1577;SDS011;57623;53.608;10.004;2022-12-29T02:00:17;5.77;;;5.27;;
1577;SDS011;57623;53.608;10.004;2022-12-29T02:03:06;5.77;;;5.37;;
1577;SDS011;57623;53.608;10.004;2022-12-29T02:05:58;6.10;;;5.70;;
1577;SDS011;57623;53.608;10.004;2022-12-29T02:08:56;6.77;;;6.27;;
1577;SDS011;57623;53.608;10.004;2022-12-29T02:11:46;6.30;;;5.80;;
1577;SDS011;57623;53.608;10.004;2022-12-29T02:14:37;6.40;;;5.90;;
1577;SDS011;57623;53.608;10.004;2022-12-29T02:17:34;6.87;;;6.27;;
1577;SDS011;57623;53.608;10.004;2022-12-29T02:20:37;6.60;;;6.10;;
1577;SDS011;57623;53.608;10.004;2022-12-29T02:23:39;6.27;;;5.77;;
1577;SDS011;57623;53.608;10.004;2022-12-29T02:26:38;5.97;;;5.50;;
1577;SDS011;57623;53.608;10.004;2022-12-29T02:29:40;5.53;;;5.13;;
1577;SDS011;57623;53.608;10.004;2022-12-29T02:32:44;5.20;;;4.80;;
1577;SDS011;57623;53.608;10.004;2022-12-29T02:35:49;5.90;;;5.40;;
1577;SDS011;57623;53.608;10.004;2022-12-29T02:38:44;5.77;;;5.37;;
1577;SDS011;57623;53.608;10.004;2022-12-29T02:41:38;6.10;;;5.70;;
1577;SDS011;57623;53.608;10.004;2022-12-29T02:44:31;5.87;;;5.37;;
1577;SDS011;57623;53.608;10.004;2022-12-29T02:47:27;6.00;;;5.50;;
1577;SDS011;57623;53.608;10.004;2022-12-29T02:50:20;5.80;;;5.20;;
1577;SDS011;57623;53.608;10.004;2022-12-29T02:53:11;5.07;;;4.67;;
1577;SDS011;57623;53.608;10.004;2022-12-29T02:56:30;4.73;;;4.43;;
1577;SDS011;57623;53.608;10.004;2022-12-29T02:59:21;5.80;;;5.27;;
1577;SDS011;57623;53.608;10.004;2022-12-29T03:02:27;5.43;;;4.77;;
1577;SDS011;57623;53.608;10.004;2022-12-29T03:05:33;5.50;;;5.10;;
1577;SDS011;57623;53.608;10.004;2022-12-29T03:08:32;5.20;;;4.80;;
1577;SDS011;57623;53.608;10.004;2022-12-29T03:11:30;4.70;;;4.40;;
1577;SDS011;57623;53.608;10.004;2022-12-29T03:14:39;4.60;;;4.20;;
1577;SDS011;57623;53.608;10.004;2022-12-29T03:17:55;5.20;;;4.80;;
1577;SDS011;57623;53.608;10.004;2022-12-29T03:20:51;4.50;;;4.20;;
1577;SDS011;57623;53.608;10.004;2022-12-29T03:23:44;4.73;;;4.33;;
1577;SDS011;57623;53.608;10.004;2022-12-29T03:26:38;4.70;;;4.30;;
1577;SDS011;57623;53.608;10.004;2022-12-29T03:29:28;4.77;;;4.37;;
1577;SDS011;57623;53.608;10.004;2022-12-29T03:32:18;4.50;;;4.20;;
1577;SDS011;57623;53.608;10.004;2022-12-29T03:35:13;4.70;;;4.30;;
1577;SDS011;57623;53.608;10.004;2022-12-29T03:38:05;4.87;;;4.50;;
1577;SDS011;57623;53.608;10.004;2022-12-29T03:41:06;4.50;;;4.20;;
1577;SDS011;57623;53.608;10.004;2022-12-29T03:43:56;4.40;;;4.10;;
1577;SDS011;57623;53.608;10.004;2022-12-29T03:46:44;4.77;;;4.47;;
1577;SDS011;57623;53.608;10.004;2022-12-29T03:49:33;4.73;;;4.33;;
1577;SDS011;57623;53.608;10.004;2022-12-29T03:52:27;4.13;;;3.93;;
1577;SDS011;57623;53.608;10.004;2022-12-29T03:55:16;3.80;;;3.60;;
1577;SDS011;57623;53.608;10.004;2022-12-29T03:58:10;5.00;;;4.50;;
1577;SDS011;57623;53.608;10.004;2022-12-29T04:00:58;3.60;;;3.40;;
1577;SDS011;57623;53.608;10.004;2022-12-29T04:03:47;4.13;;;3.83;;
1577;SDS011;57623;53.608;10.004;2022-12-29T04:06:38;4.60;;;4.20;;
1577;SDS011;57623;53.608;10.004;2022-12-29T04:09:29;4.07;;;3.77;;
1577;SDS011;57623;53.608;10.004;2022-12-29T04:12:21;3.77;;;3.47;;
1577;SDS011;57623;53.608;10.004;2022-12-29T04:15:10;3.67;;;3.37;;
1577;SDS011;57623;53.608;10.004;2022-12-29T04:18:05;3.23;;;3.03;;
1577;SDS011;57623;53.608;10.004;2022-12-29T04:20:56;3.67;;;3.37;;
1577;SDS011;57623;53.608;10.004;2022-12-29T04:23:47;3.57;;;3.37;;
1577;SDS011;57623;53.608;10.004;2022-12-29T04:26:38;3.20;;;3.00;;
1577;SDS011;57623;53.608;10.004;2022-12-29T04:29:30;3.33;;;3.13;;
1577;SDS011;57623;53.608;10.004;2022-12-29T04:32:19;3.17;;;2.97;;
1577;SDS011;57623;53.608;10.004;2022-12-29T04:35:08;3.23;;;2.93;;
1577;SDS011;57623;53.608;10.004;2022-12-29T04:37:56;3.17;;;2.97;;
1577;SDS011;57623;53.608;10.004;2022-12-29T04:40:47;3.10;;;2.90;;
1577;SDS011;57623;53.608;10.004;2022-12-29T04:43:37;3.03;;;2.83;;
1577;SDS011;57623;53.608;10.004;2022-12-29T04:46:32;2.90;;;2.70;;
1577;SDS011;57623;53.608;10.004;2022-12-29T04:49:25;3.00;;;2.80;;
1577;SDS011;57623;53.608;10.004;2022-12-29T04:52:14;3.30;;;3.07;;
1577;SDS011;57623;53.608;10.004;2022-12-29T04:55:06;2.70;;;2.50;;
1577;SDS011;57623;53.608;10.004;2022-12-29T04:58:06;3.70;;;2.90;;
1577;SDS011;57623;53.608;10.004;2022-12-29T05:00:56;2.50;;;2.40;;
1577;SDS011;57623;53.608;10.004;2022-12-29T05:03:46;3.00;;;2.80;;
1577;SDS011;57623;53.608;10.004;2022-12-29T05:06:34;2.73;;;2.53;;
1577;SDS011;57623;53.608;10.004;2022-12-29T05:09:24;2.60;;;2.47;;
1577;SDS011;57623;53.608;10.004;2022-12-29T05:12:13;2.83;;;2.63;;
1577;SDS011;57623;53.608;10.004;2022-12-29T05:15:03;2.50;;;2.30;;
1577;SDS011;57623;53.608;10.004;2022-12-29T05:17:54;2.73;;;2.53;;
1577;SDS011;57623;53.608;10.004;2022-12-29T05:20:47;2.60;;;2.50;;
1577;SDS011;57623;53.608;10.004;2022-12-29T05:23:37;2.60;;;2.40;;
1577;SDS011;57623;53.608;10.004;2022-12-29T05:26:33;2.70;;;2.50;;
1577;SDS011;57623;53.608;10.004;2022-12-29T05:29:23;2.80;;;2.60;;
1577;SDS011;57623;53.608;10.004;2022-12-29T05:32:15;3.00;;;2.80;;
1577;SDS011;57623;53.608;10.004;2022-12-29T05:35:11;2.93;;;2.73;;
1577;SDS011;57623;53.608;10.004;2022-12-29T05:38:08;4.63;;;3.17;;
1577;SDS011;57623;53.608;10.004;2022-12-29T05:40:57;3.10;;;2.90;;
1577;SDS011;57623;53.608;10.004;2022-12-29T05:43:45;3.20;;;3.00;;
1577;SDS011;57623;53.608;10.004;2022-12-29T05:46:40;3.60;;;3.40;;
1577;SDS011;57623;53.608;10.004;2022-12-29T05:49:33;3.60;;;3.30;;
1577;SDS011;57623;53.608;10.004;2022-12-29T05:52:24;3.40;;;3.20;;
1577;SDS011;57623;53.608;10.004;2022-12-29T05:55:14;3.07;;;2.87;;
1577;SDS011;57623;53.608;10.004;2022-12-29T05:58:04;2.90;;;2.70;;
1577;SDS011;57623;53.608;10.004;2022-12-29T06:00:53;2.80;;;2.60;;
1577;SDS011;57623;53.608;10.004;2022-12-29T06:03:42;3.07;;;2.77;;
1577;SDS011;57623;53.608;10.004;2022-12-29T06:06:34;2.60;;;2.40;;
1577;SDS011;57623;53.608;10.004;2022-12-29T06:09:30;2.53;;;2.43;;
1577;SDS011;57623;53.608;10.004;2022-12-29T06:12:24;2.90;;;2.60;;
1577;SDS011;57623;53.608;10.004;2022-12-29T06:15:13;2.37;;;2.17;;
1577;SDS011;57623;53.608;10.004;2022-12-29T06:18:02;2.43;;;2.33;;
1577;SDS011;57623;53.608;10.004;2022-12-29T06:20:51;2.33;;;2.23;;
1577;SDS011;57623;53.608;10.004;2022-12-29T06:23:39;2.37;;;2.27;;
1577;SDS011;57623;53.608;10.004;2022-12-29T06:26:36;2.60;;;2.40;;
1577;SDS011;57623;53.608;10.004;2022-12-29T06:29:28;3.70;;;2.50;;
1577;SDS011;57623;53.608;10.004;2022-12-29T06:32:18;2.47;;;2.27;;
1577;SDS011;57623;53.608;10.004;2022-12-29T06:35:11;3.77;;;2.37;;
1577;SDS011;57623;53.608;10.004;2022-12-29T06:38:01;2.40;;;2.20;;
1577;SDS011;57623;53.608;10.004;2022-12-29T06:40:58;2.50;;;2.27;;
1577;SDS011;57623;53.608;10.004;2022-12-29T06:43:46;4.40;;;2.50;;
1577;SDS011;57623;53.608;10.004;2022-12-29T06:46:42;2.63;;;2.10;;
1577;SDS011;57623;53.608;10.004;2022-12-29T06:49:36;2.33;;;2.17;;
1577;SDS011;57623;53.608;10.004;2022-12-29T06:52:25;2.10;;;2.00;;
1577;SDS011;57623;53.608;10.004;2022-12-29T06:55:17;2.13;;;2.03;;
1577;SDS011;57623;53.608;10.004;2022-12-29T06:58:16;2.00;;;1.90;;
1577;SDS011;57623;53.608;10.004;2022-12-29T07:01:08;2.53;;;2.10;;
1577;SDS011;57623;53.608;10.004;2022-12-29T07:03:58;2.20;;;2.10;;
1577;SDS011;57623;53.608;10.004;2022-12-29T07:06:48;2.27;;;2.10;;
1577;SDS011;57623;53.608;10.004;2022-12-29T07:09:36;2.57;;;2.17;;
1577;SDS011;57623;53.608;10.004;2022-12-29T07:12:25;2.00;;;1.90;;
1577;SDS011;57623;53.608;10.004;2022-12-29T07:15:15;2.67;;;2.40;;
1577;SDS011;57623;53.608;10.004;2022-12-29T07:18:07;2.37;;;2.20;;
1577;SDS011;57623;53.608;10.004;2022-12-29T07:20:58;2.50;;;2.40;;
1577;SDS011;57623;53.608;10.004;2022-12-29T07:23:46;2.80;;;2.27;;
1577;SDS011;57623;53.608;10.004;2022-12-29T07:26:40;2.43;;;2.23;;
1577;SDS011;57623;53.608;10.004;2022-12-29T07:29:31;2.60;;;2.40;;
1577;SDS011;57623;53.608;10.004;2022-12-29T07:32:24;2.80;;;2.60;;
1577;SDS011;57623;53.608;10.004;2022-12-29T07:35:18;2.40;;;2.30;;
1577;SDS011;57623;53.608;10.004;2022-12-29T07:38:12;2.77;;;2.57;;
1577;SDS011;57623;53.608;10.004;2022-12-29T07:41:03;2.70;;;2.60;;
1577;SDS011;57623;53.608;10.004;2022-12-29T07:43:54;3.20;;;2.60;;
1577;SDS011;57623;53.608;10.004;2022-12-29T07:46:42;2.80;;;2.60;;
1577;SDS011;57623;53.608;10.004;2022-12-29T07:49:43;2.97;;;2.77;;
1577;SDS011;57623;53.608;10.004;2022-12-29T07:52:33;4.10;;;2.73;;
1577;SDS011;57623;53.608;10.004;2022-12-29T07:55:24;3.80;;;2.50;;
1577;SDS011;57623;53.608;10.004;2022-12-29T07:58:16;3.10;;;2.90;;
1577;SDS011;57623;53.608;10.004;2022-12-29T08:01:05;2.53;;;2.43;;
1577;SDS011;57623;53.608;10.004;2022-12-29T08:03:56;2.80;;;2.63;;
1577;SDS011;57623;53.608;10.004;2022-12-29T08:06:45;3.23;;;2.90;;
1577;SDS011;57623;53.608;10.004;2022-12-29T08:09:33;2.97;;;2.67;;
1577;SDS011;57623;53.608;10.004;2022-12-29T08:12:23;3.03;;;2.77;;
1577;SDS011;57623;53.608;10.004;2022-12-29T08:15:12;2.23;;;2.13;;
1577;SDS011;57623;53.608;10.004;2022-12-29T08:18:01;2.87;;;2.10;;
1577;SDS011;57623;53.608;10.004;2022-12-29T08:20:49;2.07;;;1.97;;
1577;SDS011;57623;53.608;10.004;2022-12-29T08:23:41;2.20;;;2.10;;
1577;SDS011;57623;53.608;10.004;2022-12-29T08:26:30;2.20;;;2.00;;
1577;SDS011;57623;53.608;10.004;2022-12-29T08:29:20;2.10;;;2.00;;
1577;SDS011;57623;53.608;10.004;2022-12-29T08:32:09;2.57;;;2.30;;
1577;SDS011;57623;53.608;10.004;2022-12-29T08:34:57;2.50;;;2.30;;
1577;SDS011;57623;53.608;10.004;2022-12-29T08:37:47;2.50;;;2.40;;
1577;SDS011;57623;53.608;10.004;2022-12-29T08:40:35;2.20;;;2.10;;
1577;SDS011;57623;53.608;10.004;2022-12-29T08:43:24;2.50;;;2.30;;
1577;SDS011;57623;53.608;10.004;2022-12-29T08:46:14;2.27;;;2.17;;
1577;SDS011;57623;53.608;10.004;2022-12-29T08:49:03;2.60;;;2.40;;
1577;SDS011;57623;53.608;10.004;2022-12-29T08:51:51;2.30;;;2.10;;
1577;SDS011;57623;53.608;10.004;2022-12-29T08:54:40;2.23;;;2.13;;
1577;SDS011;57623;53.608;10.004;2022-12-29T08:57:28;2.03;;;1.93;;
1577;SDS011;57623;53.608;10.004;2022-12-29T09:00:17;1.90;;;1.80;;
1577;SDS011;57623;53.608;10.004;2022-12-29T09:03:08;3.30;;;2.13;;
1577;SDS011;57623;53.608;10.004;2022-12-29T09:05:57;2.70;;;1.80;;
1577;SDS011;57623;53.608;10.004;2022-12-29T09:08:45;2.47;;;2.27;;
1577;SDS011;57623;53.608;10.004;2022-12-29T09:11:34;1.60;;;1.50;;
1577;SDS011;57623;53.608;10.004;2022-12-29T09:14:23;1.50;;;1.40;;
1577;SDS011;57623;53.608;10.004;2022-12-29T09:17:13;3.53;;;1.50;;
1577;SDS011;57623;53.608;10.004;2022-12-29T09:20:21;2.80;;;1.50;;
1577;SDS011;57623;53.608;10.004;2022-12-29T09:23:10;1.83;;;1.50;;
1577;SDS011;57623;53.608;10.004;2022-12-29T09:25:59;1.57;;;1.30;;
1577;SDS011;57623;53.608;10.004;2022-12-29T09:28:47;4.87;;;1.73;;
1577;SDS011;57623;53.608;10.004;2022-12-29T09:31:36;2.70;;;1.20;;
1577;SDS011;57623;53.608;10.004;2022-12-29T09:34:25;1.70;;;1.30;;
1577;SDS011;57623;53.608;10.004;2022-12-29T09:37:15;3.07;;;1.37;;
1577;SDS011;57623;53.608;10.004;2022-12-29T09:40:04;4.17;;;1.80;;
1577;SDS011;57623;53.608;10.004;2022-12-29T09:42:55;2.47;;;1.43;;
1577;SDS011;57623;53.608;10.004;2022-12-29T09:45:45;2.30;;;1.30;;
1577;SDS011;57623;53.608;10.004;2022-12-29T09:48:37;2.20;;;1.20;;
1577;SDS011;57623;53.608;10.004;2022-12-29T09:51:28;1.60;;;1.50;;
1577;SDS011;57623;53.608;10.004;2022-12-29T09:54:23;2.10;;;1.50;;
1577;SDS011;57623;53.608;10.004;2022-12-29T09:57:14;2.90;;;1.53;;
1577;SDS011;57623;53.608;10.004;2022-12-29T10:00:06;2.50;;;1.10;;
1577;SDS011;57623;53.608;10.004;2022-12-29T10:02:58;2.20;;;1.20;;
1577;SDS011;57623;53.608;10.004;2022-12-29T10:05:48;2.50;;;1.40;;
1577;SDS011;57623;53.608;10.004;2022-12-29T10:08:39;2.87;;;1.40;;
1577;SDS011;57623;53.608;10.004;2022-12-29T10:11:33;3.10;;;1.40;;
1577;SDS011;57623;53.608;10.004;2022-12-29T10:14:29;2.20;;;1.30;;
1577;SDS011;57623;53.608;10.004;2022-12-29T10:17:24;3.90;;;1.63;;
1577;SDS011;57623;53.608;10.004;2022-12-29T10:20:19;2.90;;;1.20;;
1577;SDS011;57623;53.608;10.004;2022-12-29T10:23:17;9.60;;;1.90;;
1577;SDS011;57623;53.608;10.004;2022-12-29T10:26:09;3.07;;;1.60;;
1577;SDS011;57623;53.608;10.004;2022-12-29T10:29:02;4.47;;;1.90;;
1577;SDS011;57623;53.608;10.004;2022-12-29T10:31:54;2.90;;;1.33;;
1577;SDS011;57623;53.608;10.004;2022-12-29T10:34:45;2.33;;;1.40;;
1577;SDS011;57623;53.608;10.004;2022-12-29T10:37:38;2.60;;;1.43;;
1577;SDS011;57623;53.608;10.004;2022-12-29T10:40:29;2.37;;;1.53;;
1577;SDS011;57623;53.608;10.004;2022-12-29T10:43:24;4.17;;;1.30;;
1577;SDS011;57623;53.608;10.004;2022-12-29T10:46:15;2.80;;;1.30;;
1577;SDS011;57623;53.608;10.004;2022-12-29T10:49:04;3.33;;;1.70;;
1577;SDS011;57623;53.608;10.004;2022-12-29T10:51:54;3.00;;;1.60;;
1577;SDS011;57623;53.608;10.004;2022-12-29T10:54:47;3.40;;;1.30;;
1577;SDS011;57623;53.608;10.004;2022-12-29T10:57:37;3.20;;;1.37;;
1577;SDS011;57623;53.608;10.004;2022-12-29T11:00:27;2.87;;;1.53;;
1577;SDS011;57623;53.608;10.004;2022-12-29T11:06:39;5.70;;;1.40;;
1577;SDS011;57623;53.608;10.004;2022-12-29T11:09:28;3.63;;;1.60;;
1577;SDS011;57623;53.608;10.004;2022-12-29T11:12:29;2.13;;;1.30;;
1577;SDS011;57623;53.608;10.004;2022-12-29T11:15:18;2.57;;;1.50;;
1577;SDS011;57623;53.608;10.004;2022-12-29T11:18:17;2.40;;;1.70;;
1577;SDS011;57623;53.608;10.004;2022-12-29T11:21:07;3.97;;;1.50;;
1577;SDS011;57623;53.608;10.004;2022-12-29T11:24:19;2.00;;;1.20;;
1577;SDS011;57623;53.608;10.004;2022-12-29T11:27:10;4.37;;;1.20;;
1577;SDS011;57623;53.608;10.004;2022-12-29T11:30:00;2.37;;;1.40;;
1577;SDS011;57623;53.608;10.004;2022-12-29T11:32:50;2.93;;;0.90;;
1577;SDS011;57623;53.608;10.004;2022-12-29T11:35:41;2.40;;;1.10;;
1577;SDS011;57623;53.608;10.004;2022-12-29T11:38:31;1.73;;;1.10;;
1577;SDS011;57623;53.608;10.004;2022-12-29T11:41:24;2.60;;;1.47;;
1577;SDS011;57623;53.608;10.004;2022-12-29T11:44:13;1.60;;;1.27;;
1577;SDS011;57623;53.608;10.004;2022-12-29T11:47:02;3.27;;;1.30;;
1577;SDS011;57623;53.608;10.004;2022-12-29T11:49:51;1.60;;;0.83;;
1577;SDS011;57623;53.608;10.004;2022-12-29T11:52:41;1.50;;;1.20;;
1577;SDS011;57623;53.608;10.004;2022-12-29T11:55:30;2.00;;;1.00;;
1577;SDS011;57623;53.608;10.004;2022-12-29T11:58:21;2.03;;;1.10;;
1577;SDS011;57623;53.608;10.004;2022-12-29T12:01:20;3.30;;;1.10;;
1577;SDS011;57623;53.608;10.004;2022-12-29T12:04:12;1.57;;;1.30;;
1577;SDS011;57623;53.608;10.004;2022-12-29T12:07:03;2.50;;;1.30;;
1577;SDS011;57623;53.608;10.004;2022-12-29T12:09:57;2.87;;;1.20;;
1577;SDS011;57623;53.608;10.004;2022-12-29T12:12:56;3.23;;;1.50;;
1577;SDS011;57623;53.608;10.004;2022-12-29T12:15:49;2.27;;;1.37;;
1577;SDS011;57623;53.608;10.004;2022-12-29T12:18:45;3.17;;;1.20;;
1577;SDS011;57623;53.608;10.004;2022-12-29T12:21:38;2.17;;;1.00;;
1577;SDS011;57623;53.608;10.004;2022-12-29T12:24:34;5.20;;;1.30;;
1577;SDS011;57623;53.608;10.004;2022-12-29T12:27:26;2.90;;;1.23;;
1577;SDS011;57623;53.608;10.004;2022-12-29T12:30:15;2.67;;;1.20;;
1577;SDS011;57623;53.608;10.004;2022-12-29T12:33:10;2.90;;;1.30;;
1577;SDS011;57623;53.608;10.004;2022-12-29T12:39:10;3.20;;;1.33;;
1577;SDS011;57623;53.608;10.004;2022-12-29T12:42:03;3.70;;;1.53;;
1577;SDS011;57623;53.608;10.004;2022-12-29T12:44:57;2.80;;;1.60;;
1577;SDS011;57623;53.608;10.004;2022-12-29T12:47:51;3.90;;;1.60;;
1577;SDS011;57623;53.608;10.004;2022-12-29T12:50:51;3.93;;;1.30;;
1577;SDS011;57623;53.608;10.004;2022-12-29T12:53:44;3.37;;;1.50;;
1577;SDS011;57623;53.608;10.004;2022-12-29T12:56:43;3.20;;;1.30;;
1577;SDS011;57623;53.608;10.004;2022-12-29T12:59:38;4.23;;;1.73;;
1577;SDS011;57623;53.608;10.004;2022-12-29T13:02:34;4.93;;;2.03;;
1577;SDS011;57623;53.608;10.004;2022-12-29T13:05:34;5.90;;;1.53;;
1577;SDS011;57623;53.608;10.004;2022-12-29T13:08:38;3.00;;;1.20;;
1577;SDS011;57623;53.608;10.004;2022-12-29T13:11:34;4.03;;;1.80;;
1577;SDS011;57623;53.608;10.004;2022-12-29T13:14:29;2.43;;;1.60;;
1577;SDS011;57623;53.608;10.004;2022-12-29T13:17:25;3.37;;;1.40;;
1577;SDS011;57623;53.608;10.004;2022-12-29T13:20:18;4.00;;;1.60;;
1577;SDS011;57623;53.608;10.004;2022-12-29T13:23:09;2.77;;;1.40;;
1577;SDS011;57623;53.608;10.004;2022-12-29T13:26:02;2.83;;;1.53;;
1577;SDS011;57623;53.608;10.004;2022-12-29T13:28:54;3.27;;;1.17;;
1577;SDS011;57623;53.608;10.004;2022-12-29T13:31:46;4.13;;;1.70;;
1577;SDS011;57623;53.608;10.004;2022-12-29T13:34:38;2.13;;;1.53;;
1577;SDS011;57623;53.608;10.004;2022-12-29T13:37:34;4.03;;;1.73;;
1577;SDS011;57623;53.608;10.004;2022-12-29T13:40:24;2.00;;;1.37;;
1577;SDS011;57623;53.608;10.004;2022-12-29T13:43:15;3.23;;;1.30;;
1577;SDS011;57623;53.608;10.004;2022-12-29T13:46:05;3.37;;;1.70;;
1577;SDS011;57623;53.608;10.004;2022-12-29T13:48:57;2.63;;;1.37;;
1577;SDS011;57623;53.608;10.004;2022-12-29T13:51:47;2.40;;;1.30;;
1577;SDS011;57623;53.608;10.004;2022-12-29T13:54:37;3.43;;;1.30;;
1577;SDS011;57623;53.608;10.004;2022-12-29T13:57:31;3.67;;;1.40;;
1577;SDS011;57623;53.608;10.004;2022-12-29T14:00:22;1.87;;;1.40;;
1577;SDS011;57623;53.608;10.004;2022-12-29T14:03:17;3.10;;;1.60;;
1577;SDS011;57623;53.608;10.004;2022-12-29T14:06:18;5.80;;;1.30;;
1577;SDS011;57623;53.608;10.004;2022-12-29T14:12:21;5.10;;;1.20;;
1577;SDS011;57623;53.608;10.004;2022-12-29T14:15:15;1.70;;;1.00;;
1577;SDS011;57623;53.608;10.004;2022-12-29T14:18:12;3.93;;;2.40;;
1577;SDS011;57623;53.608;10.004;2022-12-29T14:21:03;3.33;;;1.20;;
1577;SDS011;57623;53.608;10.004;2022-12-29T14:23:53;3.00;;;1.10;;
1577;SDS011;57623;53.608;10.004;2022-12-29T14:26:42;4.20;;;1.27;;
1577;SDS011;57623;53.608;10.004;2022-12-29T14:32:41;4.87;;;1.10;;
1577;SDS011;57623;53.608;10.004;2022-12-29T14:35:49;3.03;;;0.97;;
1577;SDS011;57623;53.608;10.004;2022-12-29T14:38:39;5.87;;;1.43;;
1577;SDS011;57623;53.608;10.004;2022-12-29T14:41:36;3.00;;;1.30;;
1577;SDS011;57623;53.608;10.004;2022-12-29T14:44:26;1.47;;;1.10;;
1577;SDS011;57623;53.608;10.004;2022-12-29T14:47:16;2.70;;;1.00;;
1577;SDS011;57623;53.608;10.004;2022-12-29T14:50:07;2.57;;;1.10;;
1577;SDS011;57623;53.608;10.004;2022-12-29T14:52:58;2.40;;;1.30;;
1577;SDS011;57623;53.608;10.004;2022-12-29T14:55:53;4.93;;;1.30;;
1577;SDS011;57623;53.608;10.004;2022-12-29T14:58:44;3.53;;;1.50;;
1577;SDS011;57623;53.608;10.004;2022-12-29T15:01:37;3.67;;;1.37;;
1577;SDS011;57623;53.608;10.004;2022-12-29T15:04:30;1.10;;;1.00;;
1577;SDS011;57623;53.608;10.004;2022-12-29T15:07:20;3.20;;;1.40;;
1577;SDS011;57623;53.608;10.004;2022-12-29T15:10:13;2.63;;;1.13;;
1577;SDS011;57623;53.608;10.004;2022-12-29T15:13:03;4.30;;;1.40;;
1577;SDS011;57623;53.608;10.004;2022-12-29T15:15:53;3.10;;;1.30;;
1577;SDS011;57623;53.608;10.004;2022-12-29T15:18:42;5.53;;;2.07;;
1577;SDS011;57623;53.608;10.004;2022-12-29T15:21:31;3.43;;;1.30;;
1577;SDS011;57623;53.608;10.004;2022-12-29T15:24:22;6.53;;;1.73;;
1577;SDS011;57623;53.608;10.004;2022-12-29T15:27:15;3.53;;;2.60;;
1577;SDS011;57623;53.608;10.004;2022-12-29T15:30:12;5.20;;;1.70;;
1577;SDS011;57623;53.608;10.004;2022-12-29T15:33:08;3.90;;;1.57;;
1577;SDS011;57623;53.608;10.004;2022-12-29T15:36:10;4.30;;;2.10;;
1577;SDS011;57623;53.608;10.004;2022-12-29T15:38:59;4.20;;;1.87;;
1577;SDS011;57623;53.608;10.004;2022-12-29T15:41:47;4.40;;;2.20;;
1577;SDS011;57623;53.608;10.004;2022-12-29T15:44:48;3.90;;;1.70;;
1577;SDS011;57623;53.608;10.004;2022-12-29T15:47:43;5.70;;;2.27;;
1577;SDS011;57623;53.608;10.004;2022-12-29T15:50:35;4.30;;;1.77;;
1577;SDS011;57623;53.608;10.004;2022-12-29T15:53:26;4.43;;;1.90;;
1577;SDS011;57623;53.608;10.004;2022-12-29T15:56:15;2.47;;;1.70;;
1577;SDS011;57623;53.608;10.004;2022-12-29T15:59:04;3.47;;;1.53;;
1577;SDS011;57623;53.608;10.004;2022-12-29T16:01:55;5.07;;;1.70;;
1577;SDS011;57623;53.608;10.004;2022-12-29T16:04:44;2.30;;;1.67;;
1577;SDS011;57623;53.608;10.004;2022-12-29T16:07:54;4.30;;;2.43;;
1577;SDS011;57623;53.608;10.004;2022-12-29T16:10:43;2.83;;;1.47;;
1577;SDS011;57623;53.608;10.004;2022-12-29T16:13:32;3.07;;;2.10;;
1577;SDS011;57623;53.608;10.004;2022-12-29T16:16:26;5.73;;;2.23;;
1577;SDS011;57623;53.608;10.004;2022-12-29T16:19:19;5.13;;;1.83;;
1577;SDS011;57623;53.608;10.004;2022-12-29T16:22:10;3.30;;;2.17;;
1577;SDS011;57623;53.608;10.004;2022-12-29T16:25:00;3.93;;;2.03;;
1577;SDS011;57623;53.608;10.004;2022-12-29T16:27:51;3.93;;;2.37;;
1577;SDS011;57623;53.608;10.004;2022-12-29T16:30:40;3.70;;;2.20;;
1577;SDS011;57623;53.608;10.004;2022-12-29T16:33:52;3.63;;;3.03;;
1577;SDS011;57623;53.608;10.004;2022-12-29T16:36:53;4.67;;;3.13;;
1577;SDS011;57623;53.608;10.004;2022-12-29T16:39:43;5.73;;;3.00;;
1577;SDS011;57623;53.608;10.004;2022-12-29T16:42:35;3.83;;;2.37;;
1577;SDS011;57623;53.608;10.004;2022-12-29T16:48:45;4.73;;;2.67;;
1577;SDS011;57623;53.608;10.004;2022-12-29T16:51:36;5.83;;;2.90;;
1577;SDS011;57623;53.608;10.004;2022-12-29T16:54:28;6.13;;;3.10;;
1577;SDS011;57623;53.608;10.004;2022-12-29T16:57:23;5.73;;;3.30;;
1577;SDS011;57623;53.608;10.004;2022-12-29T17:00:17;5.30;;;3.20;;
1577;SDS011;57623;53.608;10.004;2022-12-29T17:03:06;5.70;;;2.80;;
1577;SDS011;57623;53.608;10.004;2022-12-29T17:05:55;6.67;;;3.13;;
1577;SDS011;57623;53.608;10.004;2022-12-29T17:08:44;4.33;;;2.90;;
1577;SDS011;57623;53.608;10.004;2022-12-29T17:11:34;3.87;;;2.80;;
1577;SDS011;57623;53.608;10.004;2022-12-29T17:14:51;4.87;;;2.93;;
1577;SDS011;57623;53.608;10.004;2022-12-29T17:17:42;8.13;;;3.10;;
1577;SDS011;57623;53.608;10.004;2022-12-29T17:20:31;4.67;;;2.80;;
1577;SDS011;57623;53.608;10.004;2022-12-29T17:23:20;4.70;;;2.67;;
1577;SDS011;57623;53.608;10.004;2022-12-29T17:26:13;4.00;;;2.80;;
1577;SDS011;57623;53.608;10.004;2022-12-29T17:29:02;4.70;;;3.17;;
1577;SDS011;57623;53.608;10.004;2022-12-29T17:31:51;4.10;;;2.87;;
1577;SDS011;57623;53.608;10.004;2022-12-29T17:34:40;4.93;;;2.80;;
1577;SDS011;57623;53.608;10.004;2022-12-29T17:37:33;5.93;;;3.17;;